Time;durP1;ratioP1;P1;durP2;ratioP2;P2;SDS_P1;SDS_P2;PMS_P1;PMS_P2;Temp;Humidity;BMP_temperature;BMP_pressure;BME280_temperature;BME280_humidity;BME280_pressure;Samples;Min_cycle;Max_cycle;Signal;HPM_P1;HPM_P2
2021/12/24 00:00:20;;;;;;;;;28.25;25.25;;;;;11.37;66.94;100586.66;5028795;28;45359;-65
2021/12/24 00:02:46;;;;;;;;;30.25;25.00;;;;;11.29;67.05;100564.22;5031323;28;45181;-65
2021/12/24 00:05:12;;;;;;;;;25.50;25.00;;;;;11.40;67.47;100591.16;5031307;28;45297;-66
2021/12/24 00:07:38;;;;;;;;;25.00;22.25;;;;;11.39;67.04;100584.03;5031646;28;45087;-66
2021/12/24 00:10:06;;;;;;;;;27.75;25.00;;;;;11.37;67.00;100601.81;5031271;28;44919;-67
2021/12/24 00:12:34;;;;;;;;;28.50;27.25;;;;;11.31;67.52;100590.97;5029765;28;45712;-66
2021/12/24 00:15:08;;;;;;;;;24.75;22.75;;;;;11.34;67.28;100599.06;5031671;28;44987;-65
2021/12/24 00:17:36;;;;;;;;;28.50;25.75;;;;;11.33;67.56;100587.44;5031237;28;45100;-68
2021/12/24 00:20:38;;;;;;;;;27.25;21.75;;;;;11.35;67.28;100590.16;5030354;28;45156;-65
2021/12/24 00:36:19;;;;;;;;;27.00;21.25;;;;;10.94;68.10;100500.22;5016040;28;45133;-66
2021/12/24 00:38:45;;;;;;;;;28.75;24.75;;;;;11.32;67.39;100555.31;5021286;28;45327;-65
2021/12/24 00:41:10;;;;;;;;;24.25;21.00;;;;;11.41;67.85;100569.78;5034618;28;45223;-64
2021/12/24 00:43:35;;;;;;;;;35.50;25.50;;;;;11.41;68.16;100567.13;5034334;28;45553;-66
2021/12/24 00:46:01;;;;;;;;;27.50;24.50;;;;;11.43;68.31;100564.47;5033786;28;44985;-64
2021/12/24 00:48:26;;;;;;;;;33.75;26.25;;;;;11.32;67.38;100521.47;5033368;28;46105;-66
2021/12/24 00:56:01;;;;;;;;;27.75;25.25;;;;;11.47;68.15;100547.63;5033800;28;45238;-66
2021/12/24 00:58:27;;;;;;;;;25.25;22.00;;;;;11.48;68.17;100540.50;5033023;28;45177;-64
2021/12/24 01:00:52;;;;;;;;;29.50;25.75;;;;;11.12;68.27;100467.59;5031670;28;45297;-65
2021/12/24 01:03:18;;;;;;;;;25.50;25.00;;;;;11.43;67.81;100510.97;5034643;28;46158;-66
2021/12/24 01:05:44;;;;;;;;;25.50;19.75;;;;;11.56;67.72;100526.38;5034663;28;44919;-63
2021/12/24 01:08:12;;;;;;;;;21.25;20.50;;;;;11.58;67.17;100526.41;5034681;28;45036;-66
2021/12/24 01:10:44;;;;;;;;;25.75;22.50;;;;;11.57;66.80;100512.13;5033724;28;45112;-65
2021/12/24 01:13:09;;;;;;;;;33.00;28.25;;;;;11.58;66.68;100505.94;5029112;28;46450;-65
2021/12/24 01:15:41;;;;;;;;;31.00;26.50;;;;;11.56;67.10;100494.25;5030394;28;45211;-64
2021/12/24 01:18:15;;;;;;;;;25.00;23.25;;;;;11.44;66.61;100489.59;5028198;28;45359;-63
2021/12/24 01:20:51;;;;;;;;;27.75;24.25;;;;;11.38;66.63;100486.84;5030994;28;45037;-64
2021/12/24 01:23:31;;;;;;;;;33.25;26.00;;;;;11.47;67.08;100501.25;5030666;28;45441;-65
2021/12/24 01:26:02;;;;;;;;;30.25;25.00;;;;;11.42;66.75;100490.47;5032653;28;45275;-65
2021/12/24 01:44:55;;;;;;;;;26.50;25.50;;;;;11.18;66.96;100485.53;5032478;28;45227;-65
2021/12/24 01:47:21;;;;;;;;;27.75;25.25;;;;;11.24;67.04;100491.00;5033698;28;45051;-63
2021/12/24 01:49:46;;;;;;;;;33.00;31.00;;;;;11.31;67.24;100508.06;5033480;28;44963;-66
2021/12/24 01:52:12;;;;;;;;;27.75;24.50;;;;;11.30;67.05;100509.84;5033890;28;44964;-66
2021/12/24 01:54:39;;;;;;;;;29.25;25.25;;;;;11.09;67.55;100467.53;5031128;28;45269;-65
2021/12/24 01:57:04;;;;;;;;;29.00;21.50;;;;;11.30;67.40;100507.19;5030378;28;45293;-65
2021/12/24 01:59:30;;;;;;;;;28.00;26.00;;;;;11.15;67.13;100489.06;5030413;28;45437;-65
2021/12/24 02:01:55;;;;;;;;;30.25;23.50;;;;;11.28;67.76;100510.69;5030948;28;45265;-65
2021/12/24 02:04:21;;;;;;;;;23.50;20.00;;;;;11.14;67.38;100487.25;5030580;28;45795;-66
2021/12/24 02:06:47;;;;;;;;;28.75;22.00;;;;;11.29;66.74;100501.81;5030468;28;45726;-64
2021/12/24 02:09:14;;;;;;;;;28.50;25.50;;;;;11.30;67.52;100507.19;5030904;28;45114;-66
2021/12/24 02:11:40;;;;;;;;;33.00;27.00;;;;;11.24;67.28;100499.91;5031550;28;45070;-65
2021/12/24 02:14:13;;;;;;;;;34.00;26.50;;;;;11.26;67.23;100507.97;5032006;28;45327;-65
2021/12/24 02:30:00;;;;;;;;;28.25;24.75;;;;;11.26;67.70;100483.91;5028821;28;45537;-66
2021/12/24 02:32:26;;;;;;;;;30.25;23.50;;;;;11.13;67.15;100456.03;5032457;28;45075;-65
2021/12/24 02:34:51;;;;;;;;;27.25;25.00;;;;;11.11;67.42;100463.13;5031942;28;45579;-66
2021/12/24 02:37:17;;;;;;;;;24.75;22.25;;;;;11.27;67.36;100487.47;5033132;28;45200;-65
2021/12/24 02:39:42;;;;;;;;;28.00;24.25;;;;;11.25;67.47;100487.44;5032943;28;45049;-64
2021/12/24 02:42:15;;;;;;;;;34.50;26.75;;;;;11.07;67.45;100453.25;5032791;28;45012;-67
2021/12/24 02:44:41;;;;;;;;;25.25;20.50;;;;;11.24;67.38;100480.31;5032272;28;45187;-64
2021/12/24 02:47:15;;;;;;;;;26.00;24.25;;;;;11.23;67.26;100481.16;5032573;28;45088;-64
2021/12/24 02:54:57;;;;;;;;;30.00;25.50;;;;;11.20;67.00;100471.34;5028252;28;44927;-66
2021/12/24 02:57:27;;;;;;;;;30.00;25.50;;;;;11.05;67.60;100436.25;5030832;28;45117;-65
2021/12/24 03:00:01;;;;;;;;;32.50;27.00;;;;;11.21;67.21;100467.78;5032866;28;45175;-64
2021/12/24 03:02:30;;;;;;;;;27.25;24.75;;;;;11.15;67.44;100458.72;5031690;28;45078;-64
2021/12/24 03:04:56;;;;;;;;;30.25;25.00;;;;;11.17;67.71;100465.00;5031723;28;45606;-65
2021/12/24 03:07:21;;;;;;;;;28.25;26.50;;;;;11.13;67.39;100452.47;5030736;28;45187;-65
2021/12/24 03:09:46;;;;;;;;;29.50;22.25;;;;;11.21;67.00;100466.88;5028497;28;45089;-65
2021/12/24 03:12:12;;;;;;;;;30.50;26.50;;;;;11.13;66.86;100455.13;5030884;28;45260;-67
2021/12/24 03:14:37;;;;;;;;;26.00;24.25;;;;;11.28;67.25;100475.91;5029133;28;45351;-65
2021/12/24 03:17:08;;;;;;;;;31.75;24.50;;;;;11.29;67.39;100459.91;5029308;28;45262;-64
2021/12/24 03:19:34;;;;;;;;;27.25;27.00;;;;;11.18;67.33;100445.44;5030078;28;45471;-66
2021/12/24 03:24:34;;;;;;;;;29.00;24.75;;;;;11.28;67.27;100468.78;5029607;28;45315;-65
2021/12/24 03:26:59;;;;;;;;;28.75;26.00;;;;;11.23;67.12;100449.97;5028817;28;45632;-65
2021/12/24 03:29:25;;;;;;;;;39.50;35.75;;;;;11.28;67.39;100454.53;5029667;28;45430;-66
2021/12/24 03:31:50;;;;;;;;;25.00;21.75;;;;;11.30;66.76;100463.47;5029674;28;45509;-64
2021/12/24 03:34:20;;;;;;;;;25.25;23.50;;;;;11.28;67.18;100446.50;5017609;28;45269;-65
2021/12/24 03:36:46;;;;;;;;;37.75;27.25;;;;;11.25;66.75;100437.56;5020537;28;45568;-65
2021/12/24 03:39:12;;;;;;;;;26.25;25.25;;;;;11.30;66.96;100437.66;5023612;28;45398;-64
2021/12/24 03:41:38;;;;;;;;;30.00;23.75;;;;;11.31;66.59;100443.88;5031673;28;45369;-66
2021/12/24 03:44:04;;;;;;;;;36.75;31.50;;;;;11.18;66.57;100422.25;5031400;28;45098;-63
2021/12/24 03:46:42;;;;;;;;;33.50;27.25;;;;;11.26;66.95;100425.06;5031422;28;45143;-64
2021/12/24 03:49:16;;;;;;;;;31.00;27.75;;;;;11.23;66.68;100428.56;5029711;28;45071;-65
2021/12/24 03:52:04;;;;;;;;;31.00;24.50;;;;;11.16;66.83;100412.41;5028926;28;45089;-65
2021/12/24 03:57:15;;;;;;;;;35.25;30.75;;;;;11.13;67.26;100413.25;5029599;28;45111;-64
2021/12/24 03:59:41;;;;;;;;;33.00;28.00;;;;;11.24;67.39;100426.81;5028221;28;45278;-64
2021/12/24 04:02:07;;;;;;;;;22.75;20.25;;;;;11.26;67.21;100419.72;5029226;28;45291;-63
2021/12/24 04:04:32;;;;;;;;;25.25;24.75;;;;;11.28;67.53;100411.72;5028028;28;45147;-64
2021/12/24 04:06:57;;;;;;;;;28.25;23.75;;;;;11.27;66.88;100415.28;5031681;28;45193;-65
2021/12/24 04:09:25;;;;;;;;;32.00;27.50;;;;;11.16;67.26;100391.91;5031902;28;45497;-64
2021/12/24 04:11:51;;;;;;;;;29.50;25.25;;;;;11.20;66.68;100385.75;5031914;28;45296;-65
2021/12/24 04:14:16;;;;;;;;;26.75;24.75;;;;;11.27;67.56;100401.91;5033704;28;45501;-65
2021/12/24 04:16:41;;;;;;;;;32.50;27.25;;;;;11.30;67.50;100388.59;5035376;28;44889;-63
2021/12/24 04:24:51;;;;;;;;;30.25;28.75;;;;;11.31;66.82;100385.94;5018738;28;45127;-64
2021/12/24 04:27:17;;;;;;;;;29.25;23.00;;;;;11.30;67.74;100388.59;5035117;28;44901;-64
2021/12/24 04:29:43;;;;;;;;;28.00;22.75;;;;;11.10;66.80;100369.50;5034705;28;45075;-63
2021/12/24 04:32:12;;;;;;;;;32.00;25.00;;;;;11.21;67.54;100376.84;5033608;28;45242;-64
2021/12/24 04:34:43;;;;;;;;;33.25;28.50;;;;;11.13;67.60;100353.53;5033725;28;46200;-64
2021/12/24 04:50:59;;;;;;;;;33.50;25.00;;;;;11.20;68.14;100367.03;5032392;28;45420;-64
2021/12/24 04:51:10;;;;;;;;;36.25;25.75;;;;;10.54;68.23;100255.38;5032670;28;45150;-66
2021/12/24 05:04:30;;;;;;;;;32.25;23.00;;;;;11.02;68.70;100330.19;5033574;28;45168;-64
2021/12/24 05:07:04;;;;;;;;;35.75;29.50;;;;;11.13;69.06;100364.22;5032139;28;46342;-65
2021/12/24 05:09:31;;;;;;;;;24.50;20.25;;;;;10.75;68.65;100287.81;5034051;28;45277;-66
2021/12/24 05:11:56;;;;;;;;;29.75;23.75;;;;;11.15;69.16;100375.84;5032880;28;45249;-65
2021/12/24 05:14:22;;;;;;;;;29.25;23.25;;;;;10.94;68.38;100325.56;5034492;28;45158;-65
2021/12/24 05:16:50;;;;;;;;;23.50;22.25;;;;;11.12;69.01;100366.00;5041608;28;46149;-64
2021/12/24 05:22:00;;;;;;;;;27.75;23.50;;;;;11.14;69.19;100353.56;5033737;28;45097;-66
2021/12/24 05:24:27;;;;;;;;;24.00;22.00;;;;;11.16;69.24;100349.13;5033768;28;45096;-64
2021/12/24 05:26:59;;;;;;;;;35.50;25.75;;;;;11.10;69.13;100335.66;5033389;28;45112;-66
2021/12/24 05:29:25;;;;;;;;;25.00;21.50;;;;;11.23;69.25;100350.13;5033422;28;45275;-65
2021/12/24 05:31:51;;;;;;;;;26.00;21.25;;;;;11.25;68.82;100354.66;5030963;28;44981;-65
2021/12/24 05:34:18;;;;;;;;;26.00;24.25;;;;;11.08;68.97;100313.34;5031610;28;45109;-65
2021/12/24 05:36:45;;;;;;;;;29.00;25.75;;;;;11.30;69.18;100349.41;5030437;28;45347;-64
2021/12/24 05:39:11;;;;;;;;;30.00;22.50;;;;;11.33;69.41;100340.50;5031468;28;45068;-66
2021/12/24 05:41:37;;;;;;;;;24.75;23.75;;;;;11.23;68.99;100321.63;5033153;28;45122;-66
2021/12/24 05:44:04;;;;;;;;;25.75;24.00;;;;;11.37;68.80;100343.25;5031212;28;45277;-65
2021/12/24 05:46:29;;;;;;;;;26.75;26.75;;;;;11.39;69.06;100340.63;5031082;28;45219;-66
2021/12/24 05:48:55;;;;;;;;;23.50;22.00;;;;;10.96;68.63;100257.00;5031680;28;45157;-64
2021/12/24 05:51:20;;;;;;;;;31.25;28.50;;;;;11.27;69.13;100319.00;5033165;28;45338;-66
2021/12/24 05:53:46;;;;;;;;;29.25;27.75;;;;;11.41;69.19;100346.88;5033380;28;45294;-65
2021/12/24 05:56:11;;;;;;;;;31.75;25.50;;;;;11.46;69.10;100357.66;5033324;28;45426;-65
2021/12/24 05:58:37;;;;;;;;;28.00;24.00;;;;;11.48;68.92;100361.25;5033745;28;45345;-65
2021/12/24 06:01:02;;;;;;;;;26.00;25.50;;;;;11.36;68.61;100356.59;5032807;28;45071;-66
2021/12/24 06:03:28;;;;;;;;;26.75;21.50;;;;;11.44;68.73;100369.22;5029158;28;45092;-66
2021/12/24 06:05:53;;;;;;;;;24.00;18.75;;;;;11.44;69.59;100371.00;5031662;28;45366;-65
2021/12/24 06:08:18;;;;;;;;;25.00;21.50;;;;;11.41;69.50;100361.13;5030008;28;45232;-64
2021/12/24 06:10:44;;;;;;;;;27.00;25.50;;;;;11.47;69.90;100371.06;5029161;28;45326;-64
2021/12/24 06:13:10;;;;;;;;;22.25;21.25;;;;;11.46;69.53;100360.34;5032332;28;46296;-65
2021/12/24 06:15:44;;;;;;;;;29.50;23.75;;;;;11.46;69.91;100368.34;5032902;28;45620;-64
2021/12/24 06:18:18;;;;;;;;;23.50;20.75;;;;;11.27;69.96;100341.31;5033238;28;45168;-66
2021/12/24 06:20:43;;;;;;;;;26.75;25.25;;;;;11.07;70.03;100311.56;5024040;28;45414;-65
2021/12/24 06:23:09;;;;;;;;;21.00;18.00;;;;;11.46;70.44;100363.91;5017958;28;44958;-65
2021/12/24 06:25:35;;;;;;;;;29.50;23.75;;;;;11.44;70.54;100362.97;5026182;28;46258;-64
2021/12/24 06:28:00;;;;;;;;;22.50;22.50;;;;;11.47;71.24;100360.38;5032705;28;44998;-66
2021/12/24 06:30:29;;;;;;;;;23.75;23.75;;;;;11.46;70.78;100358.56;5030417;28;45616;-64
2021/12/24 06:32:55;;;;;;;;;28.75;26.00;;;;;11.46;71.01;100354.97;5030587;28;45332;-64
2021/12/24 06:35:20;;;;;;;;;25.50;22.50;;;;;11.40;71.07;100342.38;5016719;28;45640;-66
2021/12/24 06:37:46;;;;;;;;;25.25;22.00;;;;;11.35;71.48;100331.66;5013500;28;45743;-64
2021/12/24 06:40:11;;;;;;;;;24.75;22.50;;;;;11.48;71.74;100345.19;5021838;28;45512;-67
2021/12/24 06:42:37;;;;;;;;;28.00;25.00;;;;;11.33;72.14;100308.41;5033435;28;45895;-65
2021/12/24 06:45:02;;;;;;;;;20.25;16.75;;;;;11.38;71.63;100320.06;5028301;28;45108;-66
2021/12/24 06:47:28;;;;;;;;;27.25;26.00;;;;;11.53;71.89;100341.75;5019809;28;45589;-65
2021/12/24 06:49:53;;;;;;;;;26.25;24.75;;;;;11.41;71.14;100315.66;5030681;28;45318;-64
2021/12/24 06:52:19;;;;;;;;;28.25;22.75;;;;;11.51;71.67;100334.56;5026983;28;45359;-64
2021/12/24 06:54:44;;;;;;;;;35.00;27.50;;;;;11.47;72.41;100324.69;5019491;28;47122;-66
2021/12/24 06:57:19;;;;;;;;;31.75;28.25;;;;;11.30;72.33;100329.75;5129883;27;45347;-66
2021/12/24 06:59:47;;;;;;;;;23.75;22.25;;;;;11.44;72.93;100333.56;5101833;27;45257;-65
2021/12/24 07:02:12;;;;;;;;;24.25;20.75;;;;;11.48;72.73;100334.50;5122607;27;45496;-65
2021/12/24 07:04:37;;;;;;;;;26.00;23.00;;;;;11.30;72.58;100311.03;5114265;27;45033;-65
2021/12/24 07:07:03;;;;;;;;;34.75;28.25;;;;;11.44;73.03;100341.59;5128032;27;45151;-64
2021/12/24 07:09:28;;;;;;;;;27.25;22.25;;;;;11.17;72.54;100302.81;5127842;27;44917;-68
2021/12/24 07:11:54;;;;;;;;;27.75;23.00;;;;;11.38;73.22;100337.06;5122525;27;45130;-65
2021/12/24 07:14:19;;;;;;;;;21.50;17.75;;;;;11.34;73.13;100332.50;5117427;27;45384;-64
2021/12/24 07:16:45;;;;;;;;;26.50;19.00;;;;;11.36;73.18;100332.53;5087695;27;47331;-66
2021/12/24 07:19:10;;;;;;;;;24.25;19.75;;;;;11.32;73.47;100328.00;5102775;27;45800;-64
2021/12/24 07:21:38;;;;;;;;;21.25;18.50;;;;;11.30;73.24;100332.41;5102075;27;46381;-64
2021/12/24 07:24:04;;;;;;;;;17.75;17.75;;;;;11.30;73.02;100324.41;5091529;27;45439;-65
2021/12/24 07:26:29;;;;;;;;;24.00;22.50;;;;;11.35;73.16;100336.06;5093793;27;46156;-64
2021/12/24 07:28:55;;;;;;;;;21.25;18.00;;;;;10.87;72.96;100260.41;5106328;27;46640;-65
2021/12/24 07:31:20;;;;;;;;;23.50;19.25;;;;;10.97;73.60;100265.06;5103691;27;45420;-65
2021/12/24 07:33:46;;;;;;;;;21.75;17.00;;;;;11.39;73.13;100333.47;5099600;27;45667;-66
2021/12/24 07:36:11;;;;;;;;;18.00;17.00;;;;;11.40;73.04;100324.59;5109815;27;45463;-65
2021/12/24 07:38:37;;;;;;;;;20.25;16.75;;;;;11.23;72.23;100280.63;5092832;27;45485;-66
2021/12/24 07:41:04;;;;;;;;;25.50;22.75;;;;;11.46;72.98;100330.91;5089102;27;45459;-65
2021/12/24 07:43:29;;;;;;;;;17.25;16.00;;;;;11.29;73.00;100309.25;5097176;27;45748;-65
2021/12/24 07:45:55;;;;;;;;;26.25;18.25;;;;;11.39;73.57;100320.09;5110580;27;45908;-63
2021/12/24 07:48:27;;;;;;;;;20.50;19.25;;;;;11.39;73.27;100336.16;5114203;27;45468;-64
2021/12/24 07:53:21;;;;;;;;;22.25;16.50;;;;;11.39;73.22;100329.91;5110326;27;45416;-64
2021/12/24 07:55:46;;;;;;;;;19.00;15.75;;;;;11.29;73.65;100302.13;5096511;27;45533;-64
2021/12/24 07:58:17;;;;;;;;;21.25;19.50;;;;;11.44;73.40;100328.22;5077194;27;45677;-66
2021/12/24 08:00:43;;;;;;;;;16.75;15.50;;;;;11.10;73.52;100258.13;5086344;27;45544;-65
2021/12/24 08:03:09;;;;;;;;;18.25;16.00;;;;;11.49;73.23;100329.19;5075672;27;45629;-64
2021/12/24 08:05:39;;;;;;;;;14.75;13.75;;;;;11.51;73.06;100319.38;5083187;27;45968;-64
2021/12/24 08:08:06;;;;;;;;;18.00;15.50;;;;;11.52;73.00;100315.84;5072159;27;45752;-65
2021/12/24 08:10:33;;;;;;;;;14.75;13.00;;;;;11.55;72.74;100315.91;5061279;28;45535;-65
2021/12/24 08:12:59;;;;;;;;;13.25;11.50;;;;;11.56;73.43;100316.78;5071885;28;45493;-66
2021/12/24 08:15:24;;;;;;;;;14.25;12.25;;;;;11.56;73.06;100306.09;5063050;28;46147;-64
2021/12/24 08:17:50;;;;;;;;;16.00;11.00;;;;;11.53;73.25;100293.59;5074853;28;45828;-64
2021/12/24 08:20:20;;;;;;;;;10.75;10.50;;;;;11.57;73.19;100300.75;5077309;28;45302;-64
2021/12/24 08:22:46;;;;;;;;;11.50;11.50;;;;;11.56;72.65;100295.38;5060238;28;45458;-64
2021/12/24 08:25:11;;;;;;;;;13.00;11.00;;;;;11.51;72.91;100283.72;5063199;28;45472;-63
2021/12/24 08:27:38;;;;;;;;;19.75;12.00;;;;;11.49;73.02;100282.81;5073789;28;45413;-64
2021/12/24 08:30:06;;;;;;;;;10.25;9.00;;;;;11.61;73.03;100305.31;5069802;28;45445;-65
2021/12/24 08:32:36;;;;;;;;;20.25;18.25;;;;;11.62;72.69;100292.81;5065964;28;45445;-64
2021/12/24 08:35:02;;;;;;;;;8.25;8.25;;;;;11.51;73.22;100287.28;5085674;28;46539;-64
2021/12/24 08:37:29;;;;;;;;;12.75;10.25;;;;;11.58;72.86;100310.59;5086919;28;45061;-63
2021/12/24 08:39:54;;;;;;;;;10.25;10.25;;;;;11.48;72.82;100279.22;5089896;28;45460;-65
2021/12/24 08:42:20;;;;;;;;;6.25;6.00;;;;;11.64;72.64;100303.53;5091542;28;45164;-65
2021/12/24 08:44:45;;;;;;;;;12.25;10.25;;;;;11.65;73.03;100299.97;5088260;28;45991;-64
2021/12/24 08:47:10;;;;;;;;;11.00;8.50;;;;;11.58;73.19;100274.91;5073458;28;45430;-65
2021/12/24 08:49:36;;;;;;;;;16.50;14.50;;;;;11.23;72.44;100211.97;5070992;28;45439;-64
2021/12/24 08:52:02;;;;;;;;;38.50;31.25;;;;;11.68;72.98;100281.28;5059276;28;45365;-65
2021/12/24 08:54:27;;;;;;;;;11.75;10.50;;;;;11.64;73.66;100258.06;5057060;28;47838;-66
2021/12/24 08:56:54;;;;;;;;;11.75;8.50;;;;;11.79;73.47;100277.88;5067339;27;45536;-63
2021/12/24 08:59:20;;;;;;;;;14.50;10.75;;;;;11.85;73.11;100286.91;5074415;28;45556;-66
2021/12/24 09:01:45;;;;;;;;;14.25;13.75;;;;;11.79;72.98;100275.19;5074764;28;45572;-63
2021/12/24 09:04:12;;;;;;;;;14.75;13.75;;;;;11.89;72.96;100291.41;5074420;28;46098;-66
2021/12/24 09:06:38;;;;;;;;;22.75;20.75;;;;;11.91;72.95;100292.31;5073465;28;45310;-63
2021/12/24 09:09:06;;;;;;;;;19.75;18.25;;;;;11.93;72.29;100298.66;5074807;28;45315;-63
2021/12/24 09:11:37;;;;;;;;;14.75;13.75;;;;;11.86;72.54;100283.31;5073413;28;45888;-65
2021/12/24 09:14:02;;;;;;;;;12.50;10.25;;;;;11.77;72.64;100268.06;5073383;28;46370;-64
2021/12/24 09:16:28;;;;;;;;;13.75;13.00;;;;;11.97;72.37;100300.47;5074835;28;45433;-65
2021/12/24 09:19:00;;;;;;;;;12.75;12.00;;;;;12.00;72.01;100296.94;5072299;28;45463;-66
2021/12/24 09:21:27;;;;;;;;;13.75;11.25;;;;;11.97;73.09;100289.75;5073704;28;45594;-64
2021/12/24 09:23:54;;;;;;;;;13.75;11.75;;;;;11.95;72.83;100283.50;5072746;28;45467;-64
2021/12/24 09:26:27;;;;;;;;;15.50;13.00;;;;;12.07;72.79;100298.81;5075948;28;45427;-65
2021/12/24 09:28:52;;;;;;;;;13.25;12.00;;;;;12.11;72.97;100303.31;5054804;28;45501;-66
2021/12/24 09:31:18;;;;;;;;;9.25;7.00;;;;;12.12;72.12;100299.78;5078538;27;45848;-65
2021/12/24 09:33:43;;;;;;;;;15.50;11.75;;;;;12.11;72.21;100306.00;5056770;28;46007;-64
2021/12/24 09:36:09;;;;;;;;;9.50;9.25;;;;;12.12;72.79;100299.78;5074156;28;45485;-63
2021/12/24 09:38:35;;;;;;;;;15.50;12.00;;;;;11.96;72.85;100283.53;5071580;28;45464;-65
2021/12/24 09:41:00;;;;;;;;;8.50;7.50;;;;;12.09;72.54;100299.72;5074574;28;45623;-65
2021/12/24 09:43:26;;;;;;;;;14.25;12.25;;;;;12.09;72.36;100305.06;5074496;28;45723;-63
2021/12/24 09:45:51;;;;;;;;;7.00;5.25;;;;;12.06;71.94;100297.00;5057236;28;45413;-65
2021/12/24 09:48:17;;;;;;;;;26.50;21.50;;;;;11.94;72.30;100271.88;5054252;28;45419;-65
2021/12/24 09:50:43;;;;;;;;;22.75;19.00;;;;;11.88;72.22;100250.34;5054282;28;46170;-64
2021/12/24 09:53:08;;;;;;;;;14.00;13.25;;;;;12.00;72.09;100267.50;5074963;28;47298;-66
2021/12/24 09:55:34;;;;;;;;;20.50;19.00;;;;;12.08;72.70;100265.81;5071530;27;45577;-65
2021/12/24 09:57:59;;;;;;;;;18.75;11.25;;;;;12.09;72.44;100276.53;5070595;28;45346;-62
2021/12/24 10:00:26;;;;;;;;;19.00;14.75;;;;;12.12;72.13;100276.56;5059630;28;45669;-65
2021/12/24 10:02:54;;;;;;;;;10.25;10.25;;;;;12.17;71.97;100290.00;5071435;27;45915;-64
2021/12/24 10:05:27;;;;;;;;;15.00;13.00;;;;;12.17;72.14;100293.56;5065195;28;45567;-62
2021/12/24 10:08:08;;;;;;;;;12.50;10.75;;;;;12.08;72.52;100280.09;5077097;27;45343;-64
2021/12/24 10:10:35;;;;;;;;;5.50;5.50;;;;;12.02;72.83;100250.56;5087034;28;45440;-64
2021/12/24 10:13:25;;;;;;;;;16.25;12.00;;;;;12.24;72.07;100273.16;5065100;28;45509;-65
2021/12/24 10:15:57;;;;;;;;;11.00;10.75;;;;;12.28;72.13;100266.94;5073964;28;45410;-64
2021/12/24 10:18:34;;;;;;;;;15.75;15.75;;;;;12.32;72.14;100273.22;5074184;28;45241;-65
2021/12/24 10:21:27;;;;;;;;;12.75;11.00;;;;;12.26;72.40;100263.34;5071289;28;45298;-64
2021/12/24 10:23:56;;;;;;;;;21.50;15.25;;;;;12.17;71.53;100239.13;5069261;28;46135;-63
2021/12/24 10:26:42;;;;;;;;;15.00;13.50;;;;;12.33;72.05;100275.91;5068313;28;45388;-62
2021/12/24 10:29:10;;;;;;;;;23.25;15.75;;;;;12.34;71.73;100269.69;5068140;28;45322;-64
2021/12/24 10:31:59;;;;;;;;;16.75;16.00;;;;;12.34;71.87;100271.44;5061975;28;45313;-62
2021/12/24 10:34:33;;;;;;;;;17.00;13.00;;;;;12.25;72.20;100247.25;5053044;28;46690;-63
2021/12/24 10:37:05;;;;;;;;;19.25;17.25;;;;;12.33;71.74;100254.50;5068365;28;45343;-63
2021/12/24 10:39:44;;;;;;;;;23.50;21.00;;;;;12.32;72.14;100252.72;5072459;28;45426;-64
2021/12/24 10:42:35;;;;;;;;;16.50;12.00;;;;;12.33;72.28;100246.47;5084938;27;45104;-65
2021/12/24 10:45:06;;;;;;;;;19.75;16.00;;;;;12.36;71.66;100242.94;5102515;27;45291;-65
2021/12/24 10:47:37;;;;;;;;;20.25;19.00;;;;;12.40;72.04;100244.75;5056494;28;45820;-65
2021/12/24 10:53:00;;;;;;;;;11.75;11.25;;;;;12.49;71.89;100244.84;5073347;28;45389;-67
2021/12/24 10:55:25;;;;;;;;;15.25;14.25;;;;;12.51;71.92;100239.50;5065468;27;45988;-65
2021/12/24 10:57:52;;;;;;;;;22.25;18.00;;;;;12.52;71.98;100239.53;5053250;28;45468;-63
2021/12/24 11:00:20;;;;;;;;;22.00;18.00;;;;;12.54;71.91;100235.06;5080794;27;45507;-64
2021/12/24 11:02:55;;;;;;;;;25.00;18.25;;;;;12.46;71.34;100222.50;5090825;27;45661;-62
2021/12/24 11:05:33;;;;;;;;;27.00;21.00;;;;;12.59;70.77;100236.88;5090801;27;46312;-65
2021/12/24 11:08:02;;;;;;;;;18.25;15.75;;;;;12.56;71.01;100223.47;5073769;27;45545;-65
2021/12/24 11:10:31;;;;;;;;;18.25;15.00;;;;;12.58;71.72;100219.03;5072515;28;45382;-64
2021/12/24 11:13:09;;;;;;;;;20.25;17.25;;;;;12.58;71.83;100211.88;5067474;28;45649;-68
2021/12/24 11:15:37;;;;;;;;;17.25;15.75;;;;;12.61;71.83;100202.97;5068159;28;46111;-63
2021/12/24 11:18:15;;;;;;;;;24.25;20.00;;;;;12.55;71.85;100190.41;5072390;28;46931;-68
2021/12/24 11:20:41;;;;;;;;;17.75;14.25;;;;;12.42;70.45;100149.19;5072400;28;45440;-65
2021/12/24 11:23:16;;;;;;;;;19.00;17.25;;;;;12.59;70.94;100177.94;5067865;28;45991;-63
2021/12/24 11:25:54;;;;;;;;;11.75;10.25;;;;;12.60;70.93;100177.06;5064563;28;46188;-64
2021/12/24 11:28:20;;;;;;;;;18.75;14.00;;;;;12.64;71.08;100169.06;5053389;28;45501;-63
2021/12/24 11:30:49;;;;;;;;;18.50;17.00;;;;;12.67;70.81;100163.75;5057194;28;45462;-64
2021/12/24 11:33:17;;;;;;;;;18.50;16.00;;;;;12.71;70.22;100161.97;5064747;28;46773;-65
2021/12/24 11:35:44;;;;;;;;;27.50;23.00;;;;;12.48;71.50;100116.22;5072829;28;47329;-63
2021/12/24 11:38:17;;;;;;;;;22.25;20.50;;;;;12.76;71.12;100165.59;5072851;28;45461;-63
2021/12/24 11:40:45;;;;;;;;;16.00;16.00;;;;;12.75;71.43;100160.22;5072843;28;45240;-63
2021/12/24 11:43:11;;;;;;;;;24.50;20.25;;;;;12.77;71.15;100163.78;5075242;28;45565;-66
2021/12/24 11:45:37;;;;;;;;;21.75;20.25;;;;;12.80;71.03;100169.19;5076000;28;45433;-64
2021/12/24 11:48:03;;;;;;;;;20.00;17.75;;;;;12.76;70.96;100162.00;5076021;28;45769;-65
2021/12/24 11:50:30;;;;;;;;;17.50;17.25;;;;;12.70;70.97;100170.88;5076427;28;45309;-66
2021/12/24 11:52:59;;;;;;;;;22.75;19.50;;;;;12.67;71.43;100169.09;5076034;28;45454;-63
2021/12/24 11:55:27;;;;;;;;;24.50;19.25;;;;;12.69;71.62;100166.44;5075284;27;45833;-64
2021/12/24 11:58:00;;;;;;;;;27.00;23.75;;;;;12.68;70.98;100168.19;5076195;28;45753;-65
2021/12/24 12:00:33;;;;;;;;;28.75;24.25;;;;;12.69;71.34;100172.69;5076129;28;45240;-63
2021/12/24 12:02:59;;;;;;;;;20.00;19.50;;;;;12.43;71.46;100123.34;5057656;28;45558;-63
2021/12/24 12:05:29;;;;;;;;;20.50;17.25;;;;;12.71;70.97;100157.50;5074591;28;46295;-64
2021/12/24 12:08:13;;;;;;;;;27.25;25.00;;;;;12.78;71.49;100163.81;5057621;28;45553;-64
2021/12/24 12:10:54;;;;;;;;;19.00;18.75;;;;;12.80;71.45;100166.50;5075908;28;45633;-65
2021/12/24 12:13:48;;;;;;;;;22.75;19.25;;;;;12.83;70.80;100170.09;5060818;28;45526;-65
2021/12/24 12:16:15;;;;;;;;;19.50;15.00;;;;;12.83;70.28;100162.06;5036859;28;47576;-64
2021/12/24 12:18:50;;;;;;;;;22.25;20.50;;;;;12.75;70.99;100147.69;5055418;28;45261;-65
2021/12/24 12:21:26;;;;;;;;;13.00;13.00;;;;;12.71;70.37;100154.81;5055329;28;45386;-64
2021/12/24 12:26:50;;;;;;;;;21.50;17.25;;;;;12.70;70.87;100168.19;5054577;28;46116;-64
2021/12/24 12:29:19;;;;;;;;;28.25;27.25;;;;;12.56;71.66;100145.78;5073344;27;45338;-65
2021/12/24 12:31:51;;;;;;;;;20.00;17.50;;;;;12.63;71.42;100159.22;5075824;28;45583;-65
2021/12/24 12:34:38;;;;;;;;;19.75;18.25;;;;;12.71;71.52;100170.91;5075724;28;45531;-66
2021/12/24 12:37:41;;;;;;;;;24.00;18.75;;;;;12.69;70.84;100167.31;5075141;28;46005;-64
2021/12/24 12:40:12;;;;;;;;;22.50;19.50;;;;;12.70;71.56;100155.72;5074894;28;45433;-64
2021/12/24 12:42:54;;;;;;;;;43.25;34.50;;;;;12.28;70.98;100063.38;5074961;28;45331;-64
2021/12/24 12:45:32;;;;;;;;;20.75;19.50;;;;;12.75;71.26;100145.00;5090514;27;45260;-65
2021/12/24 12:48:00;;;;;;;;;17.75;16.50;;;;;12.65;70.54;100133.31;5095351;27;45586;-65
2021/12/24 12:50:27;;;;;;;;;13.25;13.25;;;;;12.73;70.95;100150.34;5095668;27;45620;-65
2021/12/24 12:53:28;;;;;;;;;21.75;16.00;;;;;12.70;70.64;100146.75;5095603;27;45540;-65